sensor_id;sensor_type;location;lat;lon;timestamp;P1;durP1;ratioP1;P2;durP2;ratioP2
54899;SDS011;40801;41.924;25.562;2022-12-07T00:01:20;60.92;;;36.17;;
54899;SDS011;40801;41.924;25.562;2022-12-07T00:03:48;59.50;;;36.30;;
54899;SDS011;40801;41.924;25.562;2022-12-07T00:06:16;57.53;;;36.70;;
54899;SDS011;40801;41.924;25.562;2022-12-07T00:08:42;61.85;;;36.40;;
54899;SDS011;40801;41.924;25.562;2022-12-07T00:11:10;59.42;;;39.47;;
54899;SDS011;40801;41.924;25.562;2022-12-07T00:13:38;56.92;;;37.90;;
54899;SDS011;40801;41.924;25.562;2022-12-07T00:16:09;60.38;;;34.60;;
54899;SDS011;40801;41.924;25.562;2022-12-07T00:18:36;56.70;;;36.50;;
54899;SDS011;40801;41.924;25.562;2022-12-07T00:21:03;51.78;;;33.45;;
54899;SDS011;40801;41.924;25.562;2022-12-07T00:23:30;55.20;;;35.13;;
54899;SDS011;40801;41.924;25.562;2022-12-07T00:25:55;62.80;;;36.72;;
54899;SDS011;40801;41.924;25.562;2022-12-07T00:28:21;60.92;;;35.42;;
54899;SDS011;40801;41.924;25.562;2022-12-07T00:30:46;56.53;;;33.95;;
54899;SDS011;40801;41.924;25.562;2022-12-07T00:33:12;57.65;;;35.65;;
54899;SDS011;40801;41.924;25.562;2022-12-07T00:35:37;54.97;;;34.63;;
54899;SDS011;40801;41.924;25.562;2022-12-07T00:38:03;58.35;;;35.90;;
54899;SDS011;40801;41.924;25.562;2022-12-07T00:40:28;56.85;;;33.20;;
54899;SDS011;40801;41.924;25.562;2022-12-07T00:42:53;64.50;;;36.58;;
54899;SDS011;40801;41.924;25.562;2022-12-07T00:45:19;66.32;;;37.92;;
54899;SDS011;40801;41.924;25.562;2022-12-07T00:47:44;55.67;;;34.05;;
54899;SDS011;40801;41.924;25.562;2022-12-07T00:50:10;57.42;;;37.80;;
54899;SDS011;40801;41.924;25.562;2022-12-07T00:52:35;79.43;;;50.13;;
54899;SDS011;40801;41.924;25.562;2022-12-07T00:55:01;71.03;;;43.60;;
54899;SDS011;40801;41.924;25.562;2022-12-07T00:57:26;63.40;;;36.10;;
54899;SDS011;40801;41.924;25.562;2022-12-07T00:59:51;61.10;;;35.28;;
54899;SDS011;40801;41.924;25.562;2022-12-07T01:02:20;55.47;;;37.05;;
54899;SDS011;40801;41.924;25.562;2022-12-07T01:04:46;61.05;;;40.20;;
54899;SDS011;40801;41.924;25.562;2022-12-07T01:07:11;64.03;;;40.20;;
54899;SDS011;40801;41.924;25.562;2022-12-07T01:09:37;65.60;;;38.38;;
54899;SDS011;40801;41.924;25.562;2022-12-07T01:12:02;67.57;;;38.30;;
54899;SDS011;40801;41.924;25.562;2022-12-07T01:14:28;58.42;;;36.28;;
54899;SDS011;40801;41.924;25.562;2022-12-07T01:16:53;71.63;;;40.92;;
54899;SDS011;40801;41.924;25.562;2022-12-07T01:19:19;69.13;;;38.95;;
54899;SDS011;40801;41.924;25.562;2022-12-07T01:21:44;62.65;;;39.67;;
54899;SDS011;40801;41.924;25.562;2022-12-07T01:24:10;65.03;;;37.92;;
54899;SDS011;40801;41.924;25.562;2022-12-07T01:26:36;63.70;;;39.20;;
54899;SDS011;40801;41.924;25.562;2022-12-07T01:29:02;58.78;;;37.33;;
54899;SDS011;40801;41.924;25.562;2022-12-07T01:31:28;74.47;;;40.67;;
54899;SDS011;40801;41.924;25.562;2022-12-07T01:33:55;70.18;;;42.92;;
54899;SDS011;40801;41.924;25.562;2022-12-07T01:36:25;64.38;;;38.92;;
54899;SDS011;40801;41.924;25.562;2022-12-07T01:38:55;75.78;;;47.60;;
54899;SDS011;40801;41.924;25.562;2022-12-07T01:41:22;83.47;;;50.17;;
54899;SDS011;40801;41.924;25.562;2022-12-07T01:46:32;71.88;;;40.47;;
54899;SDS011;40801;41.924;25.562;2022-12-07T01:48:58;61.85;;;42.58;;
54899;SDS011;40801;41.924;25.562;2022-12-07T01:51:24;73.03;;;39.90;;
54899;SDS011;40801;41.924;25.562;2022-12-07T01:53:51;71.97;;;41.10;;
54899;SDS011;40801;41.924;25.562;2022-12-07T01:56:17;59.75;;;36.10;;
54899;SDS011;40801;41.924;25.562;2022-12-07T01:58:45;67.07;;;37.87;;
54899;SDS011;40801;41.924;25.562;2022-12-07T02:01:11;72.13;;;39.55;;
54899;SDS011;40801;41.924;25.562;2022-12-07T02:03:40;66.40;;;39.25;;
54899;SDS011;40801;41.924;25.562;2022-12-07T02:06:07;66.80;;;38.08;;
54899;SDS011;40801;41.924;25.562;2022-12-07T02:08:35;67.93;;;38.08;;
54899;SDS011;40801;41.924;25.562;2022-12-07T02:11:01;61.72;;;39.45;;
54899;SDS011;40801;41.924;25.562;2022-12-07T02:13:29;63.08;;;37.65;;
54899;SDS011;40801;41.924;25.562;2022-12-07T02:16:03;91.50;;;54.22;;
54899;SDS011;40801;41.924;25.562;2022-12-07T02:32:24;60.60;;;35.60;;
54899;SDS011;40801;41.924;25.562;2022-12-07T02:37:22;64.75;;;36.53;;
54899;SDS011;40801;41.924;25.562;2022-12-07T02:42:50;56.47;;;35.20;;
54899;SDS011;40801;41.924;25.562;2022-12-07T02:45:23;70.40;;;42.35;;
54899;SDS011;40801;41.924;25.562;2022-12-07T02:47:53;62.70;;;41.55;;
54899;SDS011;40801;41.924;25.562;2022-12-07T02:50:21;70.35;;;45.80;;
54899;SDS011;40801;41.924;25.562;2022-12-07T02:52:47;80.10;;;44.35;;
54899;SDS011;40801;41.924;25.562;2022-12-07T02:55:12;74.70;;;47.10;;
54899;SDS011;40801;41.924;25.562;2022-12-07T03:00:17;70.88;;;41.25;;
54899;SDS011;40801;41.924;25.562;2022-12-07T03:02:55;70.38;;;40.08;;
54899;SDS011;40801;41.924;25.562;2022-12-07T03:18:37;54.80;;;34.05;;
54899;SDS011;40801;41.924;25.562;2022-12-07T03:21:11;59.10;;;33.50;;
54899;SDS011;40801;41.924;25.562;2022-12-07T03:23:44;54.78;;;33.92;;
54899;SDS011;40801;41.924;25.562;2022-12-07T03:28:41;61.33;;;35.47;;
54899;SDS011;40801;41.924;25.562;2022-12-07T03:33:52;65.57;;;39.97;;
54899;SDS011;40801;41.924;25.562;2022-12-07T03:39:00;65.32;;;38.58;;
54899;SDS011;40801;41.924;25.562;2022-12-07T03:41:29;66.65;;;38.78;;
54899;SDS011;40801;41.924;25.562;2022-12-07T03:43:56;69.17;;;36.97;;
54899;SDS011;40801;41.924;25.562;2022-12-07T03:46:33;62.50;;;39.17;;
54899;SDS011;40801;41.924;25.562;2022-12-07T03:49:12;60.60;;;38.25;;
54899;SDS011;40801;41.924;25.562;2022-12-07T03:51:51;64.22;;;37.20;;
54899;SDS011;40801;41.924;25.562;2022-12-07T03:57:24;73.22;;;40.75;;
54899;SDS011;40801;41.924;25.562;2022-12-07T03:59:53;67.15;;;38.35;;
54899;SDS011;40801;41.924;25.562;2022-12-07T04:02:20;74.75;;;45.17;;
54899;SDS011;40801;41.924;25.562;2022-12-07T04:04:45;67.10;;;42.75;;
54899;SDS011;40801;41.924;25.562;2022-12-07T04:07:11;57.75;;;38.50;;
54899;SDS011;40801;41.924;25.562;2022-12-07T04:09:37;60.83;;;36.45;;
54899;SDS011;40801;41.924;25.562;2022-12-07T04:12:03;69.05;;;38.22;;
54899;SDS011;40801;41.924;25.562;2022-12-07T04:14:29;64.85;;;39.00;;
54899;SDS011;40801;41.924;25.562;2022-12-07T04:16:55;67.65;;;41.40;;
54899;SDS011;40801;41.924;25.562;2022-12-07T04:19:23;68.32;;;41.33;;
54899;SDS011;40801;41.924;25.562;2022-12-07T04:21:56;60.40;;;35.17;;
54899;SDS011;40801;41.924;25.562;2022-12-07T04:24:23;64.35;;;37.55;;
54899;SDS011;40801;41.924;25.562;2022-12-07T04:26:49;62.55;;;36.53;;
54899;SDS011;40801;41.924;25.562;2022-12-07T04:29:15;64.93;;;36.08;;
54899;SDS011;40801;41.924;25.562;2022-12-07T04:31:41;70.03;;;39.75;;
54899;SDS011;40801;41.924;25.562;2022-12-07T04:34:06;57.80;;;35.13;;
54899;SDS011;40801;41.924;25.562;2022-12-07T04:36:32;59.60;;;35.10;;
54899;SDS011;40801;41.924;25.562;2022-12-07T04:38:58;67.53;;;36.45;;
54899;SDS011;40801;41.924;25.562;2022-12-07T04:41:24;61.03;;;36.60;;
54899;SDS011;40801;41.924;25.562;2022-12-07T04:43:56;60.55;;;36.65;;
54899;SDS011;40801;41.924;25.562;2022-12-07T04:46:24;76.78;;;39.97;;
54899;SDS011;40801;41.924;25.562;2022-12-07T04:48:50;67.82;;;36.30;;
54899;SDS011;40801;41.924;25.562;2022-12-07T04:51:19;61.53;;;37.00;;
54899;SDS011;40801;41.924;25.562;2022-12-07T04:53:54;67.20;;;39.13;;
54899;SDS011;40801;41.924;25.562;2022-12-07T04:56:21;68.35;;;41.85;;
54899;SDS011;40801;41.924;25.562;2022-12-07T04:58:47;62.47;;;38.75;;
54899;SDS011;40801;41.924;25.562;2022-12-07T05:01:14;69.55;;;42.30;;
54899;SDS011;40801;41.924;25.562;2022-12-07T05:03:41;75.30;;;44.97;;
54899;SDS011;40801;41.924;25.562;2022-12-07T05:06:07;66.57;;;44.35;;
54899;SDS011;40801;41.924;25.562;2022-12-07T05:08:33;74.00;;;48.22;;
54899;SDS011;40801;41.924;25.562;2022-12-07T05:11:00;82.07;;;52.88;;
54899;SDS011;40801;41.924;25.562;2022-12-07T05:13:26;83.90;;;49.80;;
54899;SDS011;40801;41.924;25.562;2022-12-07T05:15:51;78.75;;;47.85;;
54899;SDS011;40801;41.924;25.562;2022-12-07T05:18:17;82.03;;;48.53;;
54899;SDS011;40801;41.924;25.562;2022-12-07T05:20:43;79.05;;;47.67;;
54899;SDS011;40801;41.924;25.562;2022-12-07T05:23:09;78.40;;;45.15;;
54899;SDS011;40801;41.924;25.562;2022-12-07T05:25:35;73.43;;;44.53;;
54899;SDS011;40801;41.924;25.562;2022-12-07T05:28:01;72.70;;;42.30;;
54899;SDS011;40801;41.924;25.562;2022-12-07T05:30:27;73.30;;;43.05;;
54899;SDS011;40801;41.924;25.562;2022-12-07T05:32:52;64.50;;;42.30;;
54899;SDS011;40801;41.924;25.562;2022-12-07T05:35:18;69.18;;;44.15;;
54899;SDS011;40801;41.924;25.562;2022-12-07T05:37:44;70.30;;;44.97;;
54899;SDS011;40801;41.924;25.562;2022-12-07T05:40:10;79.43;;;45.17;;
54899;SDS011;40801;41.924;25.562;2022-12-07T05:42:36;83.65;;;52.17;;
54899;SDS011;40801;41.924;25.562;2022-12-07T05:45:02;86.05;;;51.38;;
54899;SDS011;40801;41.924;25.562;2022-12-07T05:47:29;82.80;;;53.72;;
54899;SDS011;40801;41.924;25.562;2022-12-07T05:49:54;80.50;;;55.33;;
54899;SDS011;40801;41.924;25.562;2022-12-07T05:52:20;78.78;;;55.35;;
54899;SDS011;40801;41.924;25.562;2022-12-07T05:54:45;85.07;;;55.33;;
54899;SDS011;40801;41.924;25.562;2022-12-07T05:57:11;103.55;;;69.40;;
54899;SDS011;40801;41.924;25.562;2022-12-07T05:59:36;92.50;;;61.47;;
54899;SDS011;40801;41.924;25.562;2022-12-07T06:02:03;92.20;;;58.45;;
54899;SDS011;40801;41.924;25.562;2022-12-07T06:04:31;86.10;;;57.42;;
54899;SDS011;40801;41.924;25.562;2022-12-07T06:06:59;130.43;;;94.20;;
54899;SDS011;40801;41.924;25.562;2022-12-07T06:09:24;113.53;;;78.63;;
54899;SDS011;40801;41.924;25.562;2022-12-07T06:11:51;158.50;;;118.20;;
54899;SDS011;40801;41.924;25.562;2022-12-07T06:14:35;109.50;;;80.75;;
54899;SDS011;40801;41.924;25.562;2022-12-07T06:17:01;83.63;;;60.15;;
54899;SDS011;40801;41.924;25.562;2022-12-07T06:19:26;76.30;;;49.90;;
54899;SDS011;40801;41.924;25.562;2022-12-07T06:21:52;93.05;;;58.35;;
54899;SDS011;40801;41.924;25.562;2022-12-07T06:24:18;95.78;;;59.58;;
54899;SDS011;40801;41.924;25.562;2022-12-07T06:26:44;72.88;;;49.75;;
54899;SDS011;40801;41.924;25.562;2022-12-07T06:29:10;75.22;;;50.47;;
54899;SDS011;40801;41.924;25.562;2022-12-07T06:31:36;66.15;;;45.35;;
54899;SDS011;40801;41.924;25.562;2022-12-07T06:34:04;74.18;;;45.22;;
54899;SDS011;40801;41.924;25.562;2022-12-07T06:36:31;59.70;;;39.72;;
54899;SDS011;40801;41.924;25.562;2022-12-07T06:38:57;59.20;;;36.42;;
54899;SDS011;40801;41.924;25.562;2022-12-07T06:41:23;62.88;;;37.38;;
54899;SDS011;40801;41.924;25.562;2022-12-07T06:43:48;56.75;;;37.67;;
54899;SDS011;40801;41.924;25.562;2022-12-07T06:46:14;52.60;;;35.45;;
54899;SDS011;40801;41.924;25.562;2022-12-07T06:48:40;60.63;;;42.08;;
54899;SDS011;40801;41.924;25.562;2022-12-07T06:51:06;56.08;;;40.33;;
54899;SDS011;40801;41.924;25.562;2022-12-07T06:53:32;62.17;;;41.72;;
54899;SDS011;40801;41.924;25.562;2022-12-07T06:55:57;61.75;;;42.20;;
54899;SDS011;40801;41.924;25.562;2022-12-07T06:58:23;52.58;;;40.13;;
54899;SDS011;40801;41.924;25.562;2022-12-07T07:00:48;56.58;;;38.60;;
54899;SDS011;40801;41.924;25.562;2022-12-07T07:03:15;56.97;;;38.40;;
54899;SDS011;40801;41.924;25.562;2022-12-07T07:05:41;62.38;;;43.17;;
54899;SDS011;40801;41.924;25.562;2022-12-07T07:08:07;59.50;;;41.67;;
54899;SDS011;40801;41.924;25.562;2022-12-07T07:10:32;65.57;;;43.58;;
54899;SDS011;40801;41.924;25.562;2022-12-07T07:12:58;62.25;;;39.58;;
54899;SDS011;40801;41.924;25.562;2022-12-07T07:15:23;61.22;;;38.90;;
54899;SDS011;40801;41.924;25.562;2022-12-07T07:17:49;61.53;;;40.80;;
54899;SDS011;40801;41.924;25.562;2022-12-07T07:20:14;67.85;;;41.33;;
54899;SDS011;40801;41.924;25.562;2022-12-07T07:22:40;60.33;;;40.72;;
54899;SDS011;40801;41.924;25.562;2022-12-07T07:25:05;65.82;;;44.97;;
54899;SDS011;40801;41.924;25.562;2022-12-07T07:27:31;64.30;;;41.83;;
54899;SDS011;40801;41.924;25.562;2022-12-07T07:29:56;66.18;;;41.78;;
54899;SDS011;40801;41.924;25.562;2022-12-07T07:32:21;70.07;;;41.38;;
54899;SDS011;40801;41.924;25.562;2022-12-07T07:34:47;60.50;;;43.30;;
54899;SDS011;40801;41.924;25.562;2022-12-07T07:37:13;60.78;;;39.85;;
54899;SDS011;40801;41.924;25.562;2022-12-07T07:39:39;59.33;;;40.03;;
54899;SDS011;40801;41.924;25.562;2022-12-07T07:42:04;73.72;;;48.72;;
54899;SDS011;40801;41.924;25.562;2022-12-07T07:44:30;70.57;;;48.08;;
54899;SDS011;40801;41.924;25.562;2022-12-07T07:46:56;65.45;;;40.67;;
54899;SDS011;40801;41.924;25.562;2022-12-07T07:49:21;61.17;;;39.10;;
54899;SDS011;40801;41.924;25.562;2022-12-07T07:51:47;46.10;;;31.92;;
54899;SDS011;40801;41.924;25.562;2022-12-07T07:54:12;53.55;;;35.60;;
54899;SDS011;40801;41.924;25.562;2022-12-07T07:56:37;48.92;;;31.15;;
54899;SDS011;40801;41.924;25.562;2022-12-07T07:59:03;51.13;;;34.42;;
54899;SDS011;40801;41.924;25.562;2022-12-07T08:01:28;55.38;;;38.15;;
54899;SDS011;40801;41.924;25.562;2022-12-07T08:03:54;52.42;;;35.85;;
54899;SDS011;40801;41.924;25.562;2022-12-07T08:06:19;50.05;;;34.78;;
54899;SDS011;40801;41.924;25.562;2022-12-07T08:08:45;62.20;;;45.60;;
54899;SDS011;40801;41.924;25.562;2022-12-07T08:11:10;56.90;;;40.40;;
54899;SDS011;40801;41.924;25.562;2022-12-07T08:13:36;51.40;;;33.35;;
54899;SDS011;40801;41.924;25.562;2022-12-07T08:16:05;44.45;;;31.10;;
54899;SDS011;40801;41.924;25.562;2022-12-07T08:18:36;41.17;;;30.77;;
54899;SDS011;40801;41.924;25.562;2022-12-07T08:21:02;44.78;;;29.42;;
54899;SDS011;40801;41.924;25.562;2022-12-07T08:23:29;51.75;;;32.00;;
54899;SDS011;40801;41.924;25.562;2022-12-07T08:25:55;49.33;;;33.35;;
54899;SDS011;40801;41.924;25.562;2022-12-07T08:28:20;50.33;;;33.72;;
54899;SDS011;40801;41.924;25.562;2022-12-07T08:30:46;70.45;;;49.28;;
54899;SDS011;40801;41.924;25.562;2022-12-07T08:33:11;44.67;;;30.40;;
54899;SDS011;40801;41.924;25.562;2022-12-07T08:35:37;44.28;;;30.02;;
54899;SDS011;40801;41.924;25.562;2022-12-07T08:38:03;38.00;;;28.42;;
54899;SDS011;40801;41.924;25.562;2022-12-07T08:40:29;40.13;;;30.17;;
54899;SDS011;40801;41.924;25.562;2022-12-07T08:42:55;40.70;;;31.70;;
54899;SDS011;40801;41.924;25.562;2022-12-07T08:45:21;53.50;;;41.03;;
54899;SDS011;40801;41.924;25.562;2022-12-07T08:47:54;69.68;;;51.15;;
54899;SDS011;40801;41.924;25.562;2022-12-07T08:50:33;49.35;;;35.60;;
54899;SDS011;40801;41.924;25.562;2022-12-07T08:53:00;53.28;;;37.00;;
54899;SDS011;40801;41.924;25.562;2022-12-07T08:55:27;61.97;;;48.58;;
54899;SDS011;40801;41.924;25.562;2022-12-07T08:57:54;56.60;;;38.75;;
54899;SDS011;40801;41.924;25.562;2022-12-07T09:00:20;49.10;;;33.28;;
54899;SDS011;40801;41.924;25.562;2022-12-07T09:02:46;49.97;;;34.70;;
54899;SDS011;40801;41.924;25.562;2022-12-07T09:05:11;54.35;;;35.10;;
54899;SDS011;40801;41.924;25.562;2022-12-07T09:07:39;58.90;;;37.08;;
54899;SDS011;40801;41.924;25.562;2022-12-07T09:10:07;44.05;;;32.75;;
54899;SDS011;40801;41.924;25.562;2022-12-07T09:12:33;45.25;;;32.13;;
54899;SDS011;40801;41.924;25.562;2022-12-07T09:14:58;54.42;;;38.33;;
54899;SDS011;40801;41.924;25.562;2022-12-07T09:17:25;46.05;;;32.75;;
54899;SDS011;40801;41.924;25.562;2022-12-07T09:19:51;58.03;;;40.10;;
54899;SDS011;40801;41.924;25.562;2022-12-07T09:22:16;52.67;;;42.28;;
54899;SDS011;40801;41.924;25.562;2022-12-07T09:24:41;39.78;;;30.52;;
54899;SDS011;40801;41.924;25.562;2022-12-07T09:27:07;39.92;;;28.58;;
54899;SDS011;40801;41.924;25.562;2022-12-07T09:29:32;41.75;;;30.08;;
54899;SDS011;40801;41.924;25.562;2022-12-07T09:31:58;52.00;;;38.17;;
54899;SDS011;40801;41.924;25.562;2022-12-07T09:34:23;54.05;;;39.65;;
54899;SDS011;40801;41.924;25.562;2022-12-07T09:36:49;56.58;;;42.00;;
54899;SDS011;40801;41.924;25.562;2022-12-07T09:39:14;41.42;;;29.90;;
54899;SDS011;40801;41.924;25.562;2022-12-07T09:41:40;50.25;;;37.30;;
54899;SDS011;40801;41.924;25.562;2022-12-07T09:44:13;60.88;;;42.03;;
54899;SDS011;40801;41.924;25.562;2022-12-07T09:46:47;44.78;;;32.10;;
54899;SDS011;40801;41.924;25.562;2022-12-07T09:49:19;40.80;;;30.70;;
54899;SDS011;40801;41.924;25.562;2022-12-07T09:51:47;52.25;;;30.13;;
54899;SDS011;40801;41.924;25.562;2022-12-07T09:54:24;45.63;;;28.48;;
54899;SDS011;40801;41.924;25.562;2022-12-07T09:56:49;34.55;;;25.75;;
54899;SDS011;40801;41.924;25.562;2022-12-07T09:59:17;41.30;;;29.20;;
54899;SDS011;40801;41.924;25.562;2022-12-07T10:01:44;36.47;;;26.85;;
54899;SDS011;40801;41.924;25.562;2022-12-07T10:04:30;33.20;;;27.00;;
54899;SDS011;40801;41.924;25.562;2022-12-07T10:06:55;39.25;;;28.70;;
54899;SDS011;40801;41.924;25.562;2022-12-07T10:09:21;40.33;;;29.02;;
54899;SDS011;40801;41.924;25.562;2022-12-07T10:12:06;39.35;;;27.00;;
54899;SDS011;40801;41.924;25.562;2022-12-07T10:17:21;41.70;;;27.90;;
54899;SDS011;40801;41.924;25.562;2022-12-07T10:19:51;39.20;;;28.00;;
54899;SDS011;40801;41.924;25.562;2022-12-07T10:22:17;38.78;;;27.90;;
54899;SDS011;40801;41.924;25.562;2022-12-07T10:24:43;40.90;;;29.35;;
54899;SDS011;40801;41.924;25.562;2022-12-07T10:27:17;36.22;;;29.42;;
54899;SDS011;40801;41.924;25.562;2022-12-07T10:29:48;29.33;;;23.80;;
54899;SDS011;40801;41.924;25.562;2022-12-07T10:34:41;39.03;;;29.42;;
54899;SDS011;40801;41.924;25.562;2022-12-07T10:37:14;38.17;;;26.95;;
54899;SDS011;40801;41.924;25.562;2022-12-07T10:39:47;38.10;;;28.30;;
54899;SDS011;40801;41.924;25.562;2022-12-07T10:44:42;39.92;;;31.38;;
54899;SDS011;40801;41.924;25.562;2022-12-07T11:18:31;38.15;;;31.63;;
54899;SDS011;40801;41.924;25.562;2022-12-07T11:24:07;34.92;;;26.23;;
54899;SDS011;40801;41.924;25.562;2022-12-07T11:38:21;29.35;;;21.92;;
54899;SDS011;40801;41.924;25.562;2022-12-07T11:40:56;27.38;;;20.42;;
54899;SDS011;40801;41.924;25.562;2022-12-07T11:43:37;23.38;;;20.77;;
54899;SDS011;40801;41.924;25.562;2022-12-07T11:46:15;26.63;;;23.10;;
54899;SDS011;40801;41.924;25.562;2022-12-07T11:51:26;35.75;;;32.10;;
54899;SDS011;40801;41.924;25.562;2022-12-07T11:53:59;27.92;;;24.10;;
54899;SDS011;40801;41.924;25.562;2022-12-07T11:56:30;26.45;;;21.23;;
54899;SDS011;40801;41.924;25.562;2022-12-07T11:59:03;24.42;;;20.13;;
54899;SDS011;40801;41.924;25.562;2022-12-07T12:04:45;31.02;;;25.25;;
54899;SDS011;40801;41.924;25.562;2022-12-07T12:07:17;32.00;;;24.38;;
54899;SDS011;40801;41.924;25.562;2022-12-07T12:20:36;37.85;;;30.63;;
54899;SDS011;40801;41.924;25.562;2022-12-07T12:23:07;36.00;;;27.35;;
54899;SDS011;40801;41.924;25.562;2022-12-07T12:25:45;36.58;;;26.63;;
54899;SDS011;40801;41.924;25.562;2022-12-07T12:28:20;56.80;;;43.70;;
54899;SDS011;40801;41.924;25.562;2022-12-07T12:33:31;40.65;;;32.33;;
54899;SDS011;40801;41.924;25.562;2022-12-07T12:36:17;34.65;;;25.95;;
54899;SDS011;40801;41.924;25.562;2022-12-07T12:50:10;34.75;;;30.42;;
54899;SDS011;40801;41.924;25.562;2022-12-07T12:52:54;106.28;;;95.03;;
54899;SDS011;40801;41.924;25.562;2022-12-07T12:55:21;92.90;;;80.55;;
54899;SDS011;40801;41.924;25.562;2022-12-07T13:03:56;32.15;;;28.55;;
54899;SDS011;40801;41.924;25.562;2022-12-07T13:08:51;34.65;;;27.58;;
54899;SDS011;40801;41.924;25.562;2022-12-07T13:11:32;29.13;;;23.27;;
54899;SDS011;40801;41.924;25.562;2022-12-07T13:17:09;33.58;;;29.17;;
54899;SDS011;40801;41.924;25.562;2022-12-07T13:24:57;42.35;;;33.67;;
54899;SDS011;40801;41.924;25.562;2022-12-07T13:27:27;39.00;;;32.92;;
54899;SDS011;40801;41.924;25.562;2022-12-07T13:29:53;45.10;;;35.50;;
54899;SDS011;40801;41.924;25.562;2022-12-07T13:32:25;38.53;;;34.03;;
54899;SDS011;40801;41.924;25.562;2022-12-07T13:34:52;43.88;;;33.00;;
54899;SDS011;40801;41.924;25.562;2022-12-07T13:37:27;47.40;;;39.45;;
54899;SDS011;40801;41.924;25.562;2022-12-07T13:39:58;46.38;;;34.03;;
54899;SDS011;40801;41.924;25.562;2022-12-07T13:42:27;33.80;;;28.95;;
54899;SDS011;40801;41.924;25.562;2022-12-07T13:45:00;41.63;;;33.42;;
54899;SDS011;40801;41.924;25.562;2022-12-07T13:47:54;43.35;;;36.90;;
54899;SDS011;40801;41.924;25.562;2022-12-07T13:50:25;40.10;;;33.67;;
54899;SDS011;40801;41.924;25.562;2022-12-07T13:52:59;48.87;;;41.23;;
54899;SDS011;40801;41.924;25.562;2022-12-07T13:55:26;44.28;;;36.15;;
54899;SDS011;40801;41.924;25.562;2022-12-07T13:57:53;46.08;;;35.55;;
54899;SDS011;40801;41.924;25.562;2022-12-07T14:00:24;49.97;;;36.33;;
54899;SDS011;40801;41.924;25.562;2022-12-07T14:02:58;46.45;;;37.72;;
54899;SDS011;40801;41.924;25.562;2022-12-07T14:05:33;41.17;;;33.78;;
54899;SDS011;40801;41.924;25.562;2022-12-07T14:08:01;48.58;;;38.65;;
54899;SDS011;40801;41.924;25.562;2022-12-07T14:13:34;49.15;;;39.67;;
54899;SDS011;40801;41.924;25.562;2022-12-07T14:16:02;50.03;;;37.65;;
54899;SDS011;40801;41.924;25.562;2022-12-07T14:21:21;44.20;;;39.40;;
54899;SDS011;40801;41.924;25.562;2022-12-07T14:26:35;34.00;;;30.27;;
54899;SDS011;40801;41.924;25.562;2022-12-07T14:31:51;48.25;;;35.58;;
54899;SDS011;40801;41.924;25.562;2022-12-07T14:34:21;44.17;;;34.67;;
54899;SDS011;40801;41.924;25.562;2022-12-07T14:36:48;41.35;;;35.22;;
54899;SDS011;40801;41.924;25.562;2022-12-07T14:39:13;47.78;;;37.20;;
54899;SDS011;40801;41.924;25.562;2022-12-07T14:41:39;51.05;;;37.90;;
54899;SDS011;40801;41.924;25.562;2022-12-07T14:44:17;48.55;;;38.72;;
54899;SDS011;40801;41.924;25.562;2022-12-07T14:46:48;44.17;;;35.50;;
54899;SDS011;40801;41.924;25.562;2022-12-07T14:49:14;46.70;;;38.50;;
54899;SDS011;40801;41.924;25.562;2022-12-07T14:51:40;50.75;;;44.05;;
54899;SDS011;40801;41.924;25.562;2022-12-07T14:54:12;51.50;;;43.22;;
54899;SDS011;40801;41.924;25.562;2022-12-07T14:56:42;58.05;;;49.53;;
54899;SDS011;40801;41.924;25.562;2022-12-07T14:59:08;43.67;;;31.42;;
54899;SDS011;40801;41.924;25.562;2022-12-07T15:01:34;38.13;;;28.65;;
54899;SDS011;40801;41.924;25.562;2022-12-07T15:04:00;38.60;;;34.50;;
54899;SDS011;40801;41.924;25.562;2022-12-07T15:06:25;33.00;;;26.63;;
54899;SDS011;40801;41.924;25.562;2022-12-07T15:08:51;42.35;;;30.50;;
54899;SDS011;40801;41.924;25.562;2022-12-07T15:11:16;44.22;;;38.10;;
54899;SDS011;40801;41.924;25.562;2022-12-07T15:13:43;48.92;;;42.95;;
54899;SDS011;40801;41.924;25.562;2022-12-07T15:16:27;46.97;;;32.90;;
54899;SDS011;40801;41.924;25.562;2022-12-07T15:18:53;35.65;;;29.25;;
54899;SDS011;40801;41.924;25.562;2022-12-07T15:21:18;31.15;;;27.80;;
54899;SDS011;40801;41.924;25.562;2022-12-07T15:23:43;49.33;;;40.65;;
54899;SDS011;40801;41.924;25.562;2022-12-07T15:26:11;65.70;;;58.70;;
54899;SDS011;40801;41.924;25.562;2022-12-07T15:28:37;55.88;;;49.85;;
54899;SDS011;40801;41.924;25.562;2022-12-07T15:31:02;40.60;;;36.15;;
54899;SDS011;40801;41.924;25.562;2022-12-07T15:33:28;42.33;;;35.38;;
54899;SDS011;40801;41.924;25.562;2022-12-07T15:35:53;47.90;;;38.78;;
54899;SDS011;40801;41.924;25.562;2022-12-07T15:38:19;37.33;;;33.20;;
54899;SDS011;40801;41.924;25.562;2022-12-07T15:40:48;36.70;;;32.30;;
54899;SDS011;40801;41.924;25.562;2022-12-07T15:43:13;40.42;;;30.23;;
54899;SDS011;40801;41.924;25.562;2022-12-07T15:45:57;38.50;;;31.38;;
54899;SDS011;40801;41.924;25.562;2022-12-07T15:48:24;40.65;;;31.33;;
54899;SDS011;40801;41.924;25.562;2022-12-07T15:50:50;44.53;;;34.45;;
54899;SDS011;40801;41.924;25.562;2022-12-07T15:53:15;46.45;;;34.63;;
54899;SDS011;40801;41.924;25.562;2022-12-07T15:55:41;49.80;;;39.47;;
54899;SDS011;40801;41.924;25.562;2022-12-07T15:58:06;48.88;;;37.03;;
54899;SDS011;40801;41.924;25.562;2022-12-07T16:00:32;48.10;;;35.42;;
54899;SDS011;40801;41.924;25.562;2022-12-07T16:02:58;49.80;;;40.67;;
54899;SDS011;40801;41.924;25.562;2022-12-07T16:05:23;59.10;;;41.10;;
54899;SDS011;40801;41.924;25.562;2022-12-07T16:07:49;57.20;;;41.03;;
54899;SDS011;40801;41.924;25.562;2022-12-07T16:10:14;48.05;;;37.47;;
54899;SDS011;40801;41.924;25.562;2022-12-07T16:12:40;60.47;;;44.33;;
54899;SDS011;40801;41.924;25.562;2022-12-07T16:15:06;57.72;;;43.08;;
54899;SDS011;40801;41.924;25.562;2022-12-07T16:17:31;58.40;;;42.80;;
54899;SDS011;40801;41.924;25.562;2022-12-07T16:19:57;56.63;;;41.15;;
54899;SDS011;40801;41.924;25.562;2022-12-07T16:22:23;54.22;;;41.35;;
54899;SDS011;40801;41.924;25.562;2022-12-07T16:24:48;58.42;;;41.70;;
54899;SDS011;40801;41.924;25.562;2022-12-07T16:27:14;79.70;;;55.53;;
54899;SDS011;40801;41.924;25.562;2022-12-07T16:29:39;53.15;;;42.80;;
54899;SDS011;40801;41.924;25.562;2022-12-07T16:32:05;76.18;;;56.38;;
54899;SDS011;40801;41.924;25.562;2022-12-07T16:34:30;72.18;;;52.88;;
54899;SDS011;40801;41.924;25.562;2022-12-07T16:36:56;75.47;;;52.53;;
54899;SDS011;40801;41.924;25.562;2022-12-07T16:39:21;71.28;;;53.28;;
54899;SDS011;40801;41.924;25.562;2022-12-07T16:41:46;74.15;;;57.38;;
54899;SDS011;40801;41.924;25.562;2022-12-07T16:44:12;133.43;;;97.60;;
54899;SDS011;40801;41.924;25.562;2022-12-07T16:46:38;196.55;;;134.02;;
54899;SDS011;40801;41.924;25.562;2022-12-07T16:49:04;154.10;;;117.82;;
54899;SDS011;40801;41.924;25.562;2022-12-07T16:51:29;166.60;;;126.80;;
54899;SDS011;40801;41.924;25.562;2022-12-07T16:53:55;154.48;;;112.25;;